SWR1LZ EGLL-LSZH
Flight info
| Callsign | SWR1LZ |
|---|---|
| Flight time | N/A |
| Altitude | 29000 |
| Route | DET L6 DVR UL9 KONAN DCT KOK DCT SISGA DCT RITAX DCT KRH M150 LAMGO/N0417F270 T721 SUL/N0405F250 T721 RILAX |
| Aircraft | A321/M-SDE3FGHIRWY/LB1 |
Departure
| Time | 2026-04-30 14:06 |
|---|---|
| Airport | London Heathrow Airport (EGLL) |
Arrival
| Time | N/A |
|---|---|
| Airport | Zürich Airport (LSZH) |
| Time | Latitude | Longitude | Altitude | Speed | Heading |
|---|---|---|---|---|---|
| 2026-04-30 13:26 | 51.46825 | -0.45181 | 90 ft | 0 kts | 360° |
| 2026-04-30 13:56 | 51.46805 | -0.45180 | 86 ft | 4 kts | 353° |
| 2026-04-30 13:56 | 51.46779 | -0.45172 | 86 ft | 4 kts | 339° |
| 2026-04-30 13:56 | 51.46757 | -0.45151 | 89 ft | 4 kts | 304° |
| 2026-04-30 13:56 | 51.46751 | -0.45133 | 86 ft | 0 kts | 272° |
| 2026-04-30 13:58 | 51.46752 | -0.45171 | 89 ft | 9 kts | 270° |
| 2026-04-30 13:58 | 51.46750 | -0.45320 | 88 ft | 16 kts | 269° |
| 2026-04-30 13:59 | 51.46750 | -0.45488 | 86 ft | 15 kts | 270° |
| 2026-04-30 13:59 | 51.46749 | -0.45661 | 88 ft | 16 kts | 269° |
| 2026-04-30 13:59 | 51.46749 | -0.45851 | 86 ft | 20 kts | 270° |
| 2026-04-30 13:59 | 51.46748 | -0.46077 | 86 ft | 20 kts | 269° |
| 2026-04-30 14:00 | 51.46747 | -0.46295 | 87 ft | 19 kts | 270° |
| 2026-04-30 14:00 | 51.46748 | -0.46694 | 86 ft | 17 kts | 269° |
| 2026-04-30 14:00 | 51.46747 | -0.46873 | 90 ft | 15 kts | 270° |
| 2026-04-30 14:01 | 51.46746 | -0.47036 | 86 ft | 14 kts | 269° |
| 2026-04-30 14:01 | 51.46746 | -0.47205 | 86 ft | 18 kts | 270° |
| 2026-04-30 14:01 | 51.46745 | -0.47422 | 86 ft | 19 kts | 270° |
| 2026-04-30 14:01 | 51.46745 | -0.47630 | 87 ft | 18 kts | 269° |
| 2026-04-30 14:02 | 51.46744 | -0.47825 | 86 ft | 17 kts | 269° |
| 2026-04-30 14:02 | 51.46744 | -0.48005 | 88 ft | 15 kts | 269° |
| 2026-04-30 14:02 | 51.46742 | -0.48139 | 86 ft | 9 kts | 268° |
| 2026-04-30 14:02 | 51.46713 | -0.48210 | 88 ft | 7 kts | 197° |
| 2026-04-30 14:03 | 51.46667 | -0.48214 | 86 ft | 6 kts | 181° |
| 2026-04-30 14:03 | 51.46630 | -0.48213 | 89 ft | 5 kts | 179° |
| 2026-04-30 14:03 | 51.46603 | -0.48212 | 87 ft | 3 kts | 179° |
| 2026-04-30 14:03 | 51.46573 | -0.48212 | 87 ft | 9 kts | 179° |
| 2026-04-30 14:04 | 51.46503 | -0.48211 | 89 ft | 8 kts | 173° |
| 2026-04-30 14:04 | 51.46480 | -0.48150 | 88 ft | 7 kts | 95° |
| 2026-04-30 14:04 | 51.46480 | -0.48108 | 87 ft | 0 kts | 90° |
| 2026-04-30 14:05 | 51.46480 | -0.47953 | 87 ft | 44 kts | 90° |
| 2026-04-30 14:05 | 51.46483 | -0.47086 | 87 ft | 108 kts | 90° |
| 2026-04-30 14:06 | 51.46488 | -0.45598 | 86 ft | 157 kts | 90° |
| 2026-04-30 14:06 | 51.46451 | -0.41760 | 1019 ft | 175 kts | 106° |
| 2026-04-30 14:07 | 51.45029 | -0.38314 | 1764 ft | 202 kts | 120° |
| 2026-04-30 14:07 | 51.44266 | -0.36294 | 2033 ft | 228 kts | 119° |
| 2026-04-30 14:07 | 51.43567 | -0.33937 | 2538 ft | 241 kts | 104° |
| 2026-04-30 14:08 | 51.42820 | -0.28683 | 4267 ft | 241 kts | 103° |
| 2026-04-30 14:08 | 51.42447 | -0.26049 | 5052 ft | 245 kts | 104° |
| 2026-04-30 14:08 | 51.41710 | -0.20637 | 5962 ft | 252 kts | 104° |
| 2026-04-30 14:09 | 51.41339 | -0.17891 | 6017 ft | 252 kts | 104° |
| 2026-04-30 14:09 | 51.40968 | -0.15148 | 6018 ft | 252 kts | 105° |
| 2026-04-30 14:09 | 51.40204 | -0.09617 | 6784 ft | 256 kts | 105° |
| 2026-04-30 14:10 | 51.39816 | -0.06830 | 7571 ft | 259 kts | 105° |
| 2026-04-30 14:10 | 51.39424 | -0.03994 | 8299 ft | 263 kts | 105° |
| 2026-04-30 14:10 | 51.39029 | -0.01151 | 9013 ft | 267 kts | 105° |
| 2026-04-30 14:10 | 51.38623 | 0.01765 | 9688 ft | 270 kts | 105° |
| 2026-04-30 14:11 | 51.38211 | 0.04706 | 10445 ft | 272 kts | 104° |
| 2026-04-30 14:11 | 51.37780 | 0.07783 | 10627 ft | 295 kts | 104° |
| 2026-04-30 14:11 | 51.37314 | 0.11102 | 10758 ft | 317 kts | 104° |
| 2026-04-30 14:11 | 51.36820 | 0.14625 | 11082 ft | 330 kts | 104° |
| 2026-04-30 14:12 | 51.36313 | 0.18241 | 11669 ft | 335 kts | 104° |
| 2026-04-30 14:12 | 51.35800 | 0.21893 | 12283 ft | 339 kts | 104° |
| 2026-04-30 14:12 | 51.35277 | 0.25608 | 12898 ft | 343 kts | 104° |
| 2026-04-30 14:12 | 51.34928 | 0.28079 | 13314 ft | 345 kts | 104° |
| 2026-04-30 14:13 | 51.34219 | 0.33082 | 14125 ft | 351 kts | 104° |
| 2026-04-30 14:13 | 51.33675 | 0.36898 | 14734 ft | 354 kts | 104° |
| 2026-04-30 14:13 | 51.33122 | 0.40757 | 15332 ft | 358 kts | 104° |
| 2026-04-30 14:13 | 51.32563 | 0.44646 | 15894 ft | 361 kts | 104° |
| 2026-04-30 14:14 | 51.31999 | 0.48575 | 16448 ft | 364 kts | 104° |
| 2026-04-30 14:14 | 51.31429 | 0.52539 | 16986 ft | 368 kts | 104° |
| 2026-04-30 14:14 | 51.30853 | 0.56544 | 17520 ft | 371 kts | 104° |
| 2026-04-30 14:14 | 51.30265 | 0.60573 | 18029 ft | 374 kts | 105° |
| 2026-04-30 14:15 | 51.29605 | 0.64604 | 18535 ft | 376 kts | 107° |
| 2026-04-30 14:15 | 51.28890 | 0.68579 | 19016 ft | 379 kts | 108° |
| 2026-04-30 14:15 | 51.28125 | 0.72617 | 19519 ft | 381 kts | 108° |
| 2026-04-30 14:15 | 51.27345 | 0.76673 | 19999 ft | 383 kts | 108° |
| 2026-04-30 14:16 | 51.26568 | 0.80757 | 20483 ft | 385 kts | 108° |
| 2026-04-30 14:16 | 51.25800 | 0.84862 | 20946 ft | 387 kts | 107° |
| 2026-04-30 14:16 | 51.25034 | 0.89001 | 21393 ft | 390 kts | 107° |
| 2026-04-30 14:16 | 51.24267 | 0.93156 | 21839 ft | 391 kts | 107° |
| 2026-04-30 14:17 | 51.23493 | 0.97328 | 22275 ft | 393 kts | 107° |
| 2026-04-30 14:17 | 51.22710 | 1.01525 | 22681 ft | 396 kts | 107° |
| 2026-04-30 14:17 | 51.21924 | 1.05754 | 23086 ft | 398 kts | 107° |
| 2026-04-30 14:17 | 51.21135 | 1.09999 | 23491 ft | 401 kts | 107° |
| 2026-04-30 14:18 | 51.20347 | 1.14215 | 23892 ft | 403 kts | 107° |
| 2026-04-30 14:18 | 51.19544 | 1.18504 | 24287 ft | 405 kts | 107° |
| 2026-04-30 14:18 | 51.17921 | 1.27146 | 25028 ft | 409 kts | 107° |
| 2026-04-30 14:19 | 51.16369 | 1.35912 | 25741 ft | 414 kts | 101° |
| 2026-04-30 14:19 | 51.16046 | 1.40473 | 26097 ft | 416 kts | 95° |
| 2026-04-30 14:19 | 51.15834 | 1.45015 | 26432 ft | 418 kts | 95° |
| 2026-04-30 14:20 | 51.15615 | 1.49632 | 26769 ft | 420 kts | 95° |
| 2026-04-30 14:20 | 51.15391 | 1.54280 | 27094 ft | 421 kts | 95° |
| 2026-04-30 14:20 | 51.14938 | 1.63624 | 27713 ft | 425 kts | 96° |
| 2026-04-30 14:21 | 51.14706 | 1.68331 | 28021 ft | 426 kts | 96° |
| 2026-04-30 14:21 | 51.14470 | 1.73036 | 28316 ft | 428 kts | 96° |
| 2026-04-30 14:21 | 51.13986 | 1.82464 | 28882 ft | 431 kts | 96° |
| 2026-04-30 14:22 | 51.13740 | 1.87226 | 29145 ft | 432 kts | 96° |
| 2026-04-30 14:22 | 51.13252 | 1.96606 | 29220 ft | 417 kts | 96° |
| 2026-04-30 14:22 | 51.13012 | 2.01189 | 29221 ft | 415 kts | 96° |
| 2026-04-30 14:23 | 51.12039 | 2.19502 | 29227 ft | 415 kts | 96° |
| 2026-04-30 14:24 | 51.11287 | 2.33176 | 29228 ft | 415 kts | 96° |
| 2026-04-30 14:25 | 51.10259 | 2.51462 | 29228 ft | 415 kts | 96° |
| 2026-04-30 14:26 | 51.09155 | 2.65007 | 29228 ft | 413 kts | 107° |
| 2026-04-30 14:27 | 51.05442 | 2.77348 | 29231 ft | 413 kts | 117° |
| 2026-04-30 14:27 | 51.02767 | 2.85416 | 29232 ft | 413 kts | 117° |
| 2026-04-30 14:28 | 50.98801 | 2.97545 | 29227 ft | 413 kts | 116° |
| 2026-04-30 14:28 | 50.96244 | 3.05635 | 29221 ft | 413 kts | 116° |
| 2026-04-30 14:29 | 50.91506 | 3.20521 | 29220 ft | 413 kts | 116° |
| 2026-04-30 14:31 | 50.84547 | 3.42130 | 29221 ft | 414 kts | 116° |
| 2026-04-30 14:31 | 50.80604 | 3.54280 | 29225 ft | 414 kts | 116° |
| 2026-04-30 14:32 | 50.76640 | 3.66436 | 29228 ft | 415 kts | 116° |
| 2026-04-30 14:33 | 50.73988 | 3.74524 | 29234 ft | 415 kts | 116° |
| 2026-04-30 14:33 | 50.70007 | 3.86644 | 29240 ft | 415 kts | 116° |
| 2026-04-30 14:34 | 50.67361 | 3.94664 | 29244 ft | 415 kts | 116° |
| 2026-04-30 14:34 | 50.64692 | 4.02724 | 29251 ft | 415 kts | 116° |
| 2026-04-30 14:35 | 50.60686 | 4.14795 | 29251 ft | 415 kts | 116° |
| 2026-04-30 14:36 | 50.58000 | 4.22840 | 29254 ft | 415 kts | 116° |
| 2026-04-30 14:36 | 50.55303 | 4.30868 | 29258 ft | 415 kts | 116° |
| 2026-04-30 14:37 | 50.52629 | 4.38834 | 29258 ft | 415 kts | 116° |
| 2026-04-30 14:37 | 50.49931 | 4.46855 | 29260 ft | 415 kts | 116° |
| 2026-04-30 14:38 | 50.47232 | 4.54850 | 29250 ft | 415 kts | 116° |
| 2026-04-30 14:38 | 50.44515 | 4.62841 | 29237 ft | 415 kts | 116° |
| 2026-04-30 14:39 | 50.41800 | 4.70834 | 29234 ft | 415 kts | 116° |
| 2026-04-30 14:39 | 50.39099 | 4.78771 | 29232 ft | 415 kts | 116° |
| 2026-04-30 14:40 | 50.35000 | 4.90747 | 29235 ft | 416 kts | 116° |
| 2026-04-30 14:40 | 50.32239 | 4.98755 | 29267 ft | 424 kts | 116° |
| 2026-04-30 14:41 | 50.29381 | 5.07052 | 29276 ft | 441 kts | 116° |
| 2026-04-30 14:41 | 50.26436 | 5.15546 | 29275 ft | 446 kts | 116° |
| 2026-04-30 14:42 | 50.23474 | 5.24045 | 29274 ft | 446 kts | 116° |
| 2026-04-30 14:42 | 50.20510 | 5.32562 | 29275 ft | 446 kts | 116° |
| 2026-04-30 14:43 | 50.17565 | 5.41013 | 29282 ft | 446 kts | 116° |
| 2026-04-30 14:43 | 50.14582 | 5.49509 | 29283 ft | 447 kts | 116° |
| 2026-04-30 14:44 | 50.11591 | 5.57992 | 29282 ft | 446 kts | 116° |
| 2026-04-30 14:44 | 50.08599 | 5.66471 | 29282 ft | 447 kts | 116° |
| 2026-04-30 14:45 | 50.05602 | 5.74939 | 29286 ft | 447 kts | 116° |
| 2026-04-30 14:45 | 50.02614 | 5.83342 | 29287 ft | 447 kts | 116° |
| 2026-04-30 14:46 | 49.99588 | 5.91786 | 29286 ft | 447 kts | 116° |
| 2026-04-30 14:46 | 49.97043 | 5.98761 | 29286 ft | 447 kts | 117° |
| 2026-04-30 14:47 | 49.93429 | 6.08545 | 29286 ft | 447 kts | 117° |
| 2026-04-30 14:47 | 49.90322 | 6.16910 | 29289 ft | 447 kts | 117° |
| 2026-04-30 14:48 | 49.87237 | 6.25203 | 29292 ft | 447 kts | 117° |
| 2026-04-30 14:48 | 49.84130 | 6.33549 | 29292 ft | 447 kts | 117° |
| 2026-04-30 14:49 | 49.81017 | 6.41878 | 29291 ft | 447 kts | 117° |
| 2026-04-30 14:49 | 49.77894 | 6.50205 | 29291 ft | 447 kts | 117° |
| 2026-04-30 14:50 | 49.73209 | 6.62619 | 29291 ft | 448 kts | 117° |
| 2026-04-30 14:51 | 49.68502 | 6.75091 | 29300 ft | 448 kts | 117° |
| 2026-04-30 14:52 | 49.63776 | 6.87541 | 29300 ft | 448 kts | 117° |
| 2026-04-30 14:52 | 49.59061 | 6.99887 | 29301 ft | 447 kts | 117° |
| 2026-04-30 14:53 | 49.54313 | 7.12281 | 29299 ft | 448 kts | 117° |
| 2026-04-30 14:54 | 49.47939 | 7.28753 | 29310 ft | 447 kts | 117° |
| 2026-04-30 14:55 | 49.43203 | 7.40981 | 29316 ft | 445 kts | 117° |
| 2026-04-30 14:56 | 49.36875 | 7.57241 | 29312 ft | 443 kts | 117° |
| 2026-04-30 14:57 | 49.31838 | 7.68961 | 29300 ft | 433 kts | 132° |
| 2026-04-30 14:57 | 49.26729 | 7.73930 | 29303 ft | 439 kts | 148° |
| 2026-04-30 14:58 | 49.21295 | 7.78195 | 29302 ft | 439 kts | 149° |
| 2026-04-30 14:58 | 49.13167 | 7.84504 | 29293 ft | 438 kts | 149° |
| 2026-04-30 15:00 | 48.99594 | 7.95093 | 29279 ft | 438 kts | 149° |
| 2026-04-30 15:01 | 48.88732 | 8.03476 | 28665 ft | 437 kts | 148° |
| 2026-04-30 15:01 | 48.86923 | 8.04875 | 28397 ft | 436 kts | 148° |
| 2026-04-30 15:01 | 48.80683 | 8.09700 | 27459 ft | 431 kts | 148° |
| 2026-04-30 15:02 | 48.78012 | 8.11754 | 27065 ft | 429 kts | 148° |
| 2026-04-30 15:02 | 48.75354 | 8.13791 | 26664 ft | 427 kts | 149° |
| 2026-04-30 15:03 | 48.68356 | 8.19152 | 25601 ft | 421 kts | 149° |
| 2026-04-30 15:03 | 48.63155 | 8.23126 | 24803 ft | 417 kts | 149° |
| 2026-04-30 15:04 | 48.57995 | 8.27059 | 23998 ft | 413 kts | 149° |
| 2026-04-30 15:04 | 48.49537 | 8.33493 | 22718 ft | 405 kts | 149° |
| 2026-04-30 15:05 | 48.42874 | 8.38543 | 21718 ft | 399 kts | 149° |
| 2026-04-30 15:06 | 48.37937 | 8.42275 | 20873 ft | 394 kts | 149° |
| 2026-04-30 15:06 | 48.33074 | 8.45940 | 20065 ft | 389 kts | 149° |
| 2026-04-30 15:07 | 48.28259 | 8.49565 | 19417 ft | 385 kts | 149° |
| 2026-04-30 15:07 | 48.23528 | 8.53119 | 18521 ft | 381 kts | 150° |
| 2026-04-30 15:08 | 48.18662 | 8.56155 | 17524 ft | 381 kts | 163° |
| 2026-04-30 15:08 | 48.10818 | 8.56267 | 16017 ft | 375 kts | 189° |
| 2026-04-30 15:09 | 48.05752 | 8.54741 | 15016 ft | 368 kts | 188° |
| 2026-04-30 15:09 | 48.00808 | 8.53277 | 14027 ft | 361 kts | 188° |
| 2026-04-30 15:10 | 47.95890 | 8.53150 | 13016 ft | 349 kts | 168° |
| 2026-04-30 15:11 | 47.87574 | 8.59537 | 11235 ft | 330 kts | 138° |
| 2026-04-30 15:11 | 47.84224 | 8.63607 | 10916 ft | 295 kts | 139° |
| 2026-04-30 15:12 | 47.79552 | 8.69268 | 9866 ft | 285 kts | 138° |
| 2026-04-30 15:13 | 47.76514 | 8.72951 | 9133 ft | 280 kts | 139° |
| 2026-04-30 15:14 | 47.70608 | 8.80085 | 7639 ft | 271 kts | 138° |
| 2026-04-30 15:14 | 47.65324 | 8.80611 | 7104 ft | 287 kts | 215° |
| 2026-04-30 15:16 | 47.64144 | 8.66444 | 6929 ft | 292 kts | 277° |
| 2026-04-30 15:17 | 47.65054 | 8.54900 | 6022 ft | 266 kts | 278° |
| 2026-04-30 15:18 | 47.66041 | 8.41868 | 4249 ft | 248 kts | 277° |
| 2026-04-30 15:19 | 47.63912 | 8.35681 | 4017 ft | 240 kts | 195° |